CFB Trenton
CYTR : now visible

Airfield :











YOU CAN JOIN US ON...

 
LOGIN :

Register | Disclaimer

   EN    FR    IT 

 









Legend :    VFR   Marginal VFR   IFR   Intensive IFR   Very Intensive IFR
Visi :
Ceiling :
>= 8 km
>= 3000ft
5 to 8 km
1000 to 3000 ft
1500m to 5 km
500 to 1000 ft
800 to 1500m
200 to 500 ft
< 800m
< 200 ft
Symbols :   Thunderstorms  Fog  Heavy snow  Heavy precipitations  Wind > 20 kt






- Airport Elevation : 283 ft
- IATA code : YTR


CYTR - CFB Trenton

CURRENT METAR :
  • 241100Z 30009G15KT 15SM BKN020 06/02 A3001 RMK SC5 SLP165

EXPIRED METARs :
  • 241000Z 32011KT 15SM BKN018 07/04 A2997 RMK SC6 SLP151
  • 240945Z 30011G16KT 15SM BKN016 07/04 A2996 RMK SC6 FST STFD OBS SLP145
  • 240900Z AUTO 30010KT 9SM OVC016 OVC074 OVC094 08/06 A2992 RMK SLP133
  • 240848Z AUTO 30014KT 9SM OVC016 OVC047 OVC072 08/06 A2992
  • 240832Z AUTO 29009KT 9SM -RA OVC018 OVC072 09/06 A2990
  • 240823Z AUTO 29011G16KT 9SM BKN020 BKN041 OVC072 09/07 A2990

TAF AMD TAF CYTR
Valid from the 24 at 08:00 until the 25 at 06:00 UTC


240806Z 2408/2506 30010G20KT P6SM -SHRA BKN012 OVC030
TEMPO 2408/2409 P6SM NSW SCT012 OVC030
FM240900 30010G20KT P6SM SCT012 OVC025
TEMPO 2409/2412 BKN012 OVC025
FM241500 32010KT P6SM SCT020 OVC025
FM242000 33008KT P6SM BKN030
FM250300 01005KT P6SM SCT030 RMK FCST BASED ON AUTO OBS 240800-241000Z. NXT FCST BY 241200Z
CZYZ FIR / North America



MET'MAP, your aeronautical weather chart ! - Copyright ORBIFLY December 2007 - Disclaimer

ORBIFLY MET'MAP TEAM :

Programming & Development : Alexandra Zaïnal
Concept & original design : Baudouin d'Aumeries
Assistance for programming : Marc-Olivier Méhu
Technical & hardware support : Manuel Goepfert

Contact : metmap@orbifly.com




SOURCES & CREDITS :

   NOAA       Earth
Advisory